Time;durP1;ratioP1;P1;durP2;ratioP2;P2;SDS_P1;SDS_P2;PMS_P1;PMS_P2;Temp;Humidity;BMP_temperature;BMP_pressure;BME280_temperature;BME280_humidity;BME280_pressure;Samples;Min_cycle;Max_cycle;Signal;HPM_P1;HPM_P2
2021/03/17 00:00:20;;;;;;;;;;;;;;;0.56;93.21;102260.91;5054822;28;898;-70
2021/03/17 00:02:46;;;;;;;;;;;;;;;0.51;93.14;102260.81;5053805;28;2097;-71
2021/03/17 00:05:13;;;;;;;;;;;;;;;0.55;93.26;102258.44;5054242;28;834;-71
2021/03/17 00:07:38;;;;;;;;;;;;;;;0.58;92.72;102266.09;5053734;28;2050;-71
2021/03/17 00:10:06;;;;;;;;;;;;;;;0.64;92.90;102264.31;5054294;28;1762;-71
2021/03/17 00:12:32;;;;;;;;;;;;;;;0.74;92.66;102259.06;5054593;28;1898;-70
2021/03/17 00:14:58;;;;;;;;;;;;;;;0.72;92.12;102256.59;5054547;28;871;-70
2021/03/17 00:17:23;;;;;;;;;;;;;;;0.66;91.97;102260.28;5053523;28;2089;-71
2021/03/17 00:19:48;;;;;;;;;;;;;;;0.66;92.01;102263.00;5054489;28;1254;-71
2021/03/17 00:22:15;;;;;;;;;;;;;;;0.67;91.89;102247.53;5054309;28;1079;-71
2021/03/17 00:24:40;;;;;;;;;;;;;;;0.68;91.91;102252.72;5054411;28;879;-71
2021/03/17 00:27:06;;;;;;;;;;;;;;;0.70;91.70;102266.88;5053821;28;2132;-71
2021/03/17 00:29:31;;;;;;;;;;;;;;;0.67;91.88;102272.81;5053895;28;1362;-71
2021/03/17 00:31:57;;;;;;;;;;;;;;;0.62;91.69;102258.28;5052507;28;2129;-71
2021/03/17 00:34:22;;;;;;;;;;;;;;;0.60;91.57;102258.53;5054239;28;996;-70
2021/03/17 00:36:47;;;;;;;;;;;;;;;0.60;91.68;102266.69;5053975;28;2050;-71
2021/03/17 00:39:13;;;;;;;;;;;;;;;0.62;91.87;102269.16;5054051;28;1920;-71
2021/03/17 00:41:38;;;;;;;;;;;;;;;0.65;91.27;102258.63;5054333;28;857;-71
2021/03/17 00:44:04;;;;;;;;;;;;;;;0.62;91.15;102263.72;5054392;28;900;-71
2021/03/17 00:46:29;;;;;;;;;;;;;;;0.55;91.17;102267.44;5055679;28;892;-71
2021/03/17 00:48:54;;;;;;;;;;;;;;;0.49;91.22;102273.00;5056547;28;2110;-71
2021/03/17 00:51:20;;;;;;;;;;;;;;;0.36;91.39;102274.94;5054422;28;1882;-70
2021/03/17 00:53:45;;;;;;;;;;;;;;;0.18;91.52;102278.59;5054164;28;913;-70
2021/03/17 00:56:10;;;;;;;;;;;;;;;0.09;91.74;102276.50;5054274;28;871;-70
2021/03/17 00:58:36;;;;;;;;;;;;;;;0.01;92.20;102277.69;5052614;28;2126;-70
2021/03/17 01:01:01;;;;;;;;;;;;;;;0.02;92.48;102281.22;5053757;28;1026;-70
2021/03/17 01:03:28;;;;;;;;;;;;;;;0.04;92.95;102279.94;5056519;28;2205;-70
2021/03/17 01:05:53;;;;;;;;;;;;;;;0.14;93.03;102271.19;5057526;28;917;-70
2021/03/17 01:08:18;;;;;;;;;;;;;;;0.26;93.38;102276.59;5056925;28;2121;-70
2021/03/17 01:10:47;;;;;;;;;;;;;;;0.40;93.00;102280.72;5057471;28;1894;-70
2021/03/17 01:13:13;;;;;;;;;;;;;;;0.48;93.00;102276.78;5057707;28;851;-70
2021/03/17 01:15:39;;;;;;;;;;;;;;;0.56;92.95;102277.22;5057277;28;949;-70
2021/03/17 01:18:06;;;;;;;;;;;;;;;0.64;92.57;102281.47;5056462;28;2030;-70
2021/03/17 01:20:32;;;;;;;;;;;;;;;0.70;92.51;102287.81;5057282;28;1020;-70
2021/03/17 01:22:58;;;;;;;;;;;;;;;0.75;92.08;102282.50;5057369;28;1127;-70
2021/03/17 01:25:31;;;;;;;;;;;;;;;0.81;91.82;102280.69;5057398;28;861;-70
2021/03/17 01:27:58;;;;;;;;;;;;;;;0.83;91.38;102281.25;5056102;28;2081;-70
2021/03/17 01:30:26;;;;;;;;;;;;;;;0.86;91.24;102280.78;5039061;28;751;-70
2021/03/17 01:32:52;;;;;;;;;;;;;;;0.87;90.97;102275.09;5056272;28;2188;-70
2021/03/17 01:35:17;;;;;;;;;;;;;;;0.87;90.74;102277.81;5056982;28;996;-70
2021/03/17 01:37:43;;;;;;;;;;;;;;;0.89;91.14;102278.41;5056094;28;2129;-70
2021/03/17 01:40:11;;;;;;;;;;;;;;;0.90;90.98;102279.22;5057170;28;1369;-70
2021/03/17 01:42:37;;;;;;;;;;;;;;;0.91;90.41;102278.16;5057693;28;799;-70
2021/03/17 01:45:09;;;;;;;;;;;;;;;0.92;90.73;102279.81;5056667;28;884;-70
2021/03/17 01:47:35;;;;;;;;;;;;;;;0.93;90.51;102279.59;5056234;28;2155;-70
2021/03/17 01:50:02;;;;;;;;;;;;;;;0.96;90.17;102277.44;5056825;28;1315;-70
2021/03/17 01:52:28;;;;;;;;;;;;;;;0.98;90.06;102278.84;5056763;28;1965;-70
2021/03/17 01:54:53;;;;;;;;;;;;;;;0.99;89.48;102277.78;5056182;28;980;-71
2021/03/17 01:57:18;;;;;;;;;;;;;;;1.01;89.64;102280.25;5055749;28;1928;-70
2021/03/17 01:59:44;;;;;;;;;;;;;;;1.03;89.51;102278.91;5056473;28;1294;-70
2021/03/17 02:02:09;;;;;;;;;;;;;;;1.05;89.23;102284.13;5056017;28;2046;-71
2021/03/17 02:04:35;;;;;;;;;;;;;;;1.07;88.98;102276.53;5038359;28;1418;-70
2021/03/17 02:07:01;;;;;;;;;;;;;;;1.08;88.64;102281.75;5056569;28;885;-70
2021/03/17 02:09:27;;;;;;;;;;;;;;;1.08;88.72;102279.00;5055592;28;2129;-70
2021/03/17 02:12:00;;;;;;;;;;;;;;;1.09;88.17;102283.41;5055896;28;1973;-70
2021/03/17 02:14:38;;;;;;;;;;;;;;;1.11;87.82;102275.00;5054574;28;956;-70
2021/03/17 02:17:12;;;;;;;;;;;;;;;1.12;87.35;102282.06;5055546;28;2014;-71
2021/03/17 02:20:00;;;;;;;;;;;;;;;1.11;86.96;102283.97;5055693;28;1322;-70
2021/03/17 02:23:04;;;;;;;;;;;;;;;1.12;87.24;102274.75;5056091;28;835;-70
2021/03/17 02:25:49;;;;;;;;;;;;;;;1.13;86.87;102270.94;5031926;28;1288;-70
2021/03/17 02:28:49;;;;;;;;;;;;;;;1.12;87.10;102260.31;5055349;28;2101;-70
2021/03/17 02:31:39;;;;;;;;;;;;;;;1.14;86.81;102271.75;5056157;28;1963;-70
2021/03/17 02:34:08;;;;;;;;;;;;;;;1.15;86.67;102265.25;5055845;28;2163;-70
2021/03/17 02:36:44;;;;;;;;;;;;;;;1.15;86.55;102259.81;5037523;28;1223;-70
2021/03/17 02:39:11;;;;;;;;;;;;;;;1.18;85.73;102261.22;5054923;28;1891;-71
2021/03/17 02:41:44;;;;;;;;;;;;;;;1.18;84.96;102253.91;5055781;28;1127;-70
2021/03/17 02:44:14;;;;;;;;;;;;;;;1.14;85.26;102269.03;5055844;28;918;-70
2021/03/17 02:46:41;;;;;;;;;;;;;;;1.14;85.25;102258.16;5055896;28;1082;-70
2021/03/17 02:49:11;;;;;;;;;;;;;;;1.13;85.67;102259.25;5054755;28;2224;-70
2021/03/17 02:51:41;;;;;;;;;;;;;;;1.11;85.23;102251.31;5054872;28;2133;-70
2021/03/17 02:54:10;;;;;;;;;;;;;;;1.13;85.16;102256.53;5055347;28;915;-70
2021/03/17 02:56:42;;;;;;;;;;;;;;;1.16;84.59;102245.16;5054983;28;1015;-70
2021/03/17 02:59:10;;;;;;;;;;;;;;;1.19;84.18;102252.00;5054838;28;1322;-70
2021/03/17 03:01:37;;;;;;;;;;;;;;;1.17;84.72;102257.66;5054914;28;2154;-70
2021/03/17 03:04:07;;;;;;;;;;;;;;;1.16;84.69;102257.91;5055068;28;2051;-70
2021/03/17 03:06:36;;;;;;;;;;;;;;;1.13;84.80;102245.66;5055111;28;996;-70
2021/03/17 03:09:02;;;;;;;;;;;;;;;1.12;85.13;102246.69;5055106;28;1345;-70
2021/03/17 03:11:28;;;;;;;;;;;;;;;1.12;85.15;102252.13;5055118;28;1959;-70
2021/03/17 03:13:54;;;;;;;;;;;;;;;1.12;85.04;102242.09;5055506;28;864;-70
2021/03/17 03:16:21;;;;;;;;;;;;;;;1.13;84.89;102249.19;5055352;28;889;-71
2021/03/17 03:18:49;;;;;;;;;;;;;;;1.13;85.39;102256.53;5054065;28;2078;-70
2021/03/17 03:21:20;;;;;;;;;;;;;;;1.15;85.59;102242.69;5054888;28;842;-70
2021/03/17 03:23:47;;;;;;;;;;;;;;;1.19;85.03;102249.28;5055252;28;1071;-70
2021/03/17 03:26:16;;;;;;;;;;;;;;;1.19;85.43;102254.72;5054363;28;862;-70
2021/03/17 03:28:41;;;;;;;;;;;;;;;1.18;85.20;102256.63;5054234;28;2112;-71
2021/03/17 03:31:07;;;;;;;;;;;;;;;1.15;85.63;102251.66;5054537;28;1893;-71
2021/03/17 03:33:33;;;;;;;;;;;;;;;1.13;85.95;102262.78;5054525;28;2147;-71
2021/03/17 03:35:58;;;;;;;;;;;;;;;1.14;86.14;102260.88;5054425;28;2168;-71
2021/03/17 03:38:24;;;;;;;;;;;;;;;1.18;85.01;102255.78;5054124;28;1254;-71
2021/03/17 03:40:50;;;;;;;;;;;;;;;1.18;85.14;102256.63;5054851;28;845;-70
2021/03/17 03:43:16;;;;;;;;;;;;;;;1.17;85.25;102265.03;5036577;28;1704;-70
2021/03/17 03:45:41;;;;;;;;;;;;;;;1.17;85.28;102251.41;5054085;28;1893;-70
2021/03/17 03:48:08;;;;;;;;;;;;;;;1.16;84.19;102252.47;5053769;28;2105;-70
2021/03/17 03:50:40;;;;;;;;;;;;;;;1.13;84.72;102260.06;5054815;28;900;-70
2021/03/17 03:53:21;;;;;;;;;;;;;;;1.12;84.25;102255.72;5054478;28;1886;-70
2021/03/17 03:55:49;;;;;;;;;;;;;;;1.11;84.51;102270.38;5054424;28;2022;-70
2021/03/17 03:58:22;;;;;;;;;;;;;;;1.11;84.08;102264.13;5052635;28;1255;-70
2021/03/17 04:00:50;;;;;;;;;;;;;;;1.09;84.25;102271.66;5054265;28;1306;-70
2021/03/17 04:03:17;;;;;;;;;;;;;;;1.09;84.45;102277.13;5054914;28;2091;-70
2021/03/17 04:05:45;;;;;;;;;;;;;;;1.08;84.28;102272.75;5054321;28;988;-70
2021/03/17 04:08:17;;;;;;;;;;;;;;;1.08;83.42;102272.75;5053864;28;1278;-71
2021/03/17 04:10:43;;;;;;;;;;;;;;;1.08;83.38;102268.13;5054482;28;837;-71
2021/03/17 04:13:09;;;;;;;;;;;;;;;1.08;82.88;102265.41;5053994;28;2066;-71
2021/03/17 04:15:38;;;;;;;;;;;;;;;1.07;82.73;102269.22;5054298;28;1201;-71
2021/03/17 04:18:12;;;;;;;;;;;;;;;1.06;82.81;102277.63;5053724;28;1857;-70
2021/03/17 04:20:41;;;;;;;;;;;;;;;1.07;83.31;102285.53;5054242;28;885;-71
2021/03/17 04:23:09;;;;;;;;;;;;;;;1.07;83.01;102285.53;5054268;28;2138;-71
2021/03/17 04:25:37;;;;;;;;;;;;;;;1.08;83.17;102281.75;5054260;28;992;-71
2021/03/17 04:28:05;;;;;;;;;;;;;;;1.09;82.89;102271.66;5052842;28;1357;-71
2021/03/17 04:30:33;;;;;;;;;;;;;;;1.08;83.09;102279.00;5059198;28;1052;-71
2021/03/17 04:33:00;;;;;;;;;;;;;;;1.06;83.29;102277.63;5056685;28;2054;-70
2021/03/17 04:35:26;;;;;;;;;;;;;;;1.05;83.87;102279.50;5054500;28;1036;-70
2021/03/17 04:37:56;;;;;;;;;;;;;;;1.06;84.11;102277.63;5057107;28;817;-70
2021/03/17 04:40:24;;;;;;;;;;;;;;;1.07;84.54;102276.53;5058189;28;2158;-71
2021/03/17 04:42:50;;;;;;;;;;;;;;;1.07;84.47;102277.38;5057688;28;917;-70
2021/03/17 04:45:17;;;;;;;;;;;;;;;1.07;84.41;102281.97;5057621;28;884;-70
2021/03/17 04:47:46;;;;;;;;;;;;;;;1.08;84.28;102279.00;5048315;28;2090;-70
2021/03/17 04:50:16;;;;;;;;;;;;;;;1.09;84.79;102277.97;5038021;28;1262;-70
2021/03/17 04:52:43;;;;;;;;;;;;;;;1.10;84.61;102278.78;5037395;28;1898;-70
2021/03/17 04:55:09;;;;;;;;;;;;;;;1.10;85.11;102281.50;5038122;28;1059;-70
2021/03/17 04:57:37;;;;;;;;;;;;;;;1.10;85.16;102278.78;5043333;28;2071;-70
2021/03/17 05:00:07;;;;;;;;;;;;;;;1.10;85.13;102279.59;5057358;28;1274;-70
2021/03/17 05:02:36;;;;;;;;;;;;;;;1.09;85.38;102279.84;5057500;28;2079;-70
2021/03/17 05:05:03;;;;;;;;;;;;;;;1.09;85.48;102286.13;5057205;28;919;-70
2021/03/17 05:07:30;;;;;;;;;;;;;;;1.07;85.84;102285.53;5056897;28;2013;-70
2021/03/17 05:09:58;;;;;;;;;;;;;;;1.09;85.81;102290.72;5057190;28;1270;-71
2021/03/17 05:12:24;;;;;;;;;;;;;;;1.09;85.93;102290.72;5057567;28;1898;-70
2021/03/17 05:14:53;;;;;;;;;;;;;;;1.09;86.12;102288.00;5057695;28;1039;-70
2021/03/17 05:17:20;;;;;;;;;;;;;;;1.09;86.30;102280.69;5056857;28;2093;-70
2021/03/17 05:19:46;;;;;;;;;;;;;;;1.06;86.23;102281.16;5057151;28;1270;-71
2021/03/17 05:22:14;;;;;;;;;;;;;;;1.04;86.25;102282.47;5057415;28;864;-71
2021/03/17 05:24:41;;;;;;;;;;;;;;;1.02;86.66;102277.28;5057429;28;1016;-71
2021/03/17 05:27:13;;;;;;;;;;;;;;;1.02;86.14;102282.72;5056799;28;2144;-71
2021/03/17 05:29:40;;;;;;;;;;;;;;;1.04;85.66;102287.91;5056966;28;1290;-70
2021/03/17 05:32:08;;;;;;;;;;;;;;;1.07;85.17;102280.09;5056360;28;2048;-71
2021/03/17 05:34:35;;;;;;;;;;;;;;;1.11;84.22;102275.81;5056927;28;890;-70
2021/03/17 05:37:01;;;;;;;;;;;;;;;1.15;84.09;102278.06;5056526;28;2141;-71
2021/03/17 05:39:26;;;;;;;;;;;;;;;1.16;84.03;102269.66;5056486;28;1373;-71
2021/03/17 05:41:52;;;;;;;;;;;;;;;1.20;83.29;102272.69;5056412;28;2109;-70
2021/03/17 05:44:18;;;;;;;;;;;;;;;1.23;83.95;102273.03;5056048;28;1536;-71
2021/03/17 05:46:46;;;;;;;;;;;;;;;1.25;83.18;102268.16;5057190;28;2076;-71
2021/03/17 05:49:12;;;;;;;;;;;;;;;1.29;82.79;102287.53;5055735;28;2142;-71
2021/03/17 05:51:38;;;;;;;;;;;;;;;1.31;83.19;102286.25;5056395;28;1965;-71
2021/03/17 05:54:05;;;;;;;;;;;;;;;1.37;82.51;102287.16;5055980;28;1817;-71
2021/03/17 05:56:31;;;;;;;;;;;;;;;1.41;81.79;102288.28;5056576;28;954;-71
2021/03/17 05:59:00;;;;;;;;;;;;;;;1.45;82.12;102284.03;5056181;28;1262;-71
2021/03/17 06:01:28;;;;;;;;;;;;;;;1.49;82.38;102285.16;5056176;28;814;-71
2021/03/17 06:03:54;;;;;;;;;;;;;;;1.54;82.98;102292.59;5056449;28;2105;-71
2021/03/17 06:06:20;;;;;;;;;;;;;;;1.61;82.98;102295.97;5056060;28;1981;-71
2021/03/17 06:08:47;;;;;;;;;;;;;;;1.69;82.66;102298.28;5056157;28;1372;-71
2021/03/17 06:11:14;;;;;;;;;;;;;;;1.77;83.11;102304.41;5037965;28;1961;-71
2021/03/17 06:13:51;;;;;;;;;;;;;;;1.84;82.51;102307.78;5055953;28;2167;-71
2021/03/17 06:16:21;;;;;;;;;;;;;;;1.86;82.53;102306.44;5056181;28;1001;-71
2021/03/17 06:18:51;;;;;;;;;;;;;;;1.94;81.14;102304.34;5055203;28;2164;-71
2021/03/17 06:21:20;;;;;;;;;;;;;;;1.97;81.30;102303.88;5056426;28;814;-71
2021/03/17 06:23:46;;;;;;;;;;;;;;;2.03;80.58;102300.16;5056078;28;2062;-71
2021/03/17 06:26:12;;;;;;;;;;;;;;;2.08;80.82;102297.50;5054577;28;1370;-71
2021/03/17 06:28:39;;;;;;;;;;;;;;;2.17;80.74;102300.63;5055360;28;1301;-71
2021/03/17 06:31:05;;;;;;;;;;;;;;;2.20;79.77;102297.41;5055922;28;1902;-71
2021/03/17 06:33:30;;;;;;;;;;;;;;;2.23;79.55;102288.69;5055762;28;2091;-71
2021/03/17 06:36:13;;;;;;;;;;;;;;;2.26;79.99;102290.94;5056094;28;983;-71
2021/03/17 06:38:39;;;;;;;;;;;;;;;2.33;79.27;102294.28;5055363;28;1361;-71
2021/03/17 06:41:04;;;;;;;;;;;;;;;2.44;79.29;102298.00;5055689;28;877;-71
2021/03/17 06:43:47;;;;;;;;;;;;;;;2.61;78.10;102298.75;5055208;28;2172;-71
2021/03/17 06:46:18;;;;;;;;;;;;;;;2.78;77.77;102292.38;5055850;28;866;-71
2021/03/17 06:48:44;;;;;;;;;;;;;;;3.26;75.48;102298.88;5055195;28;2145;-71
2021/03/17 06:51:13;;;;;;;;;;;;;;;9.53;55.03;102280.22;5055443;28;1977;-71
2021/03/17 06:53:55;;;;;;;;;;;;;;;7.69;56.71;102296.00;5055402;28;2153;-71
2021/03/17 06:56:34;;;;;;;;;;;;;;;5.31;64.72;102299.09;5055050;28;861;-71
2021/03/17 06:59:07;;;;;;;;;;;;;;;4.24;70.61;102299.59;5055405;28;1266;-71
2021/03/17 07:01:36;;;;;;;;;;;;;;;3.87;72.39;102301.28;5054967;28;914;-71
2021/03/17 07:04:07;;;;;;;;;;;;;;;3.62;73.27;102301.94;5054910;28;1797;-71
2021/03/17 07:06:34;;;;;;;;;;;;;;;3.80;73.74;102300.69;5055526;28;869;-71
2021/03/17 07:09:13;;;;;;;;;;;;;;;3.82;72.45;102298.50;5054929;28;2085;-71
2021/03/17 07:11:38;;;;;;;;;;;;;;;3.60;72.95;102306.00;5054936;28;2263;-71
2021/03/17 07:14:04;;;;;;;;;;;;;;;3.51;74.04;102302.91;5054791;28;972;-71
2021/03/17 07:16:38;;;;;;;;;;;;;;;3.58;75.01;102307.09;5055378;28;2086;-72
2021/03/17 07:19:05;;;;;;;;;;;;;;;3.51;73.38;102309.22;5055157;28;2058;-71
2021/03/17 07:21:39;;;;;;;;;;;;;;;3.45;74.09;102321.19;5055308;28;845;-71
2021/03/17 07:24:07;;;;;;;;;;;;;;;3.70;73.98;102326.03;5055431;28;831;-71
2021/03/17 07:26:35;;;;;;;;;;;;;;;4.00;72.20;102326.50;5054279;28;2095;-71
2021/03/17 07:29:05;;;;;;;;;;;;;;;4.39;71.90;102324.28;5054124;28;2058;-71
2021/03/17 07:31:33;;;;;;;;;;;;;;;4.79;70.00;102324.75;5054648;28;1965;-71
2021/03/17 07:34:09;;;;;;;;;;;;;;;4.88;69.46;102315.75;5054435;28;2097;-72
2021/03/17 07:36:38;;;;;;;;;;;;;;;5.21;68.52;102321.03;5055092;28;959;-72
2021/03/17 07:39:12;;;;;;;;;;;;;;;5.37;68.72;102324.63;5053878;28;2257;-72
2021/03/17 07:41:39;;;;;;;;;;;;;;;5.21;68.25;102335.53;5054713;28;904;-72
2021/03/17 07:44:07;;;;;;;;;;;;;;;6.09;67.50;102332.81;5054916;28;856;-72
2021/03/17 07:46:34;;;;;;;;;;;;;;;6.19;64.74;102330.91;5054942;28;842;-71
2021/03/17 07:49:00;;;;;;;;;;;;;;;6.00;65.87;102322.44;5053984;28;2097;-71
2021/03/17 07:51:27;;;;;;;;;;;;;;;6.91;62.59;102332.56;5054274;28;1890;-71
2021/03/17 07:53:55;;;;;;;;;;;;;;;9.04;58.53;102316.22;5054630;28;853;-71
2021/03/17 07:56:23;;;;;;;;;;;;;;;10.49;51.94;102332.00;5054246;28;944;-72
2021/03/17 07:58:50;;;;;;;;;;;;;;;9.09;55.15;102342.09;5053869;28;2224;-72
2021/03/17 08:01:17;;;;;;;;;;;;;;;8.31;57.63;102338.63;5054847;28;941;-72
2021/03/17 08:03:45;;;;;;;;;;;;;;;9.20;55.63;102336.13;5035720;28;2067;-72
2021/03/17 08:06:13;;;;;;;;;;;;;;;11.07;52.97;102336.06;5037386;28;1222;-72
2021/03/17 08:08:40;;;;;;;;;;;;;;;18.46;40.01;102317.63;5054924;28;2157;-72
2021/03/17 08:11:06;;;;;;;;;;;;;;;22.92;26.64;102313.91;5056045;28;1910;-72
2021/03/17 08:13:32;;;;;;;;;;;;;;;24.82;23.21;102306.22;5059119;28;1059;-71
2021/03/17 08:15:58;;;;;;;;;;;;;;;25.14;23.76;102309.72;5058421;28;2042;-72
2021/03/17 08:18:32;;;;;;;;;;;;;;;20.27;27.72;102320.97;5058530;28;2038;-72
2021/03/17 08:20:59;;;;;;;;;;;;;;;17.10;33.50;102323.94;5059083;28;1048;-72
2021/03/17 08:23:44;;;;;;;;;;;;;;;16.86;34.48;102318.44;5059322;28;791;-71
2021/03/17 08:26:34;;;;;;;;;;;;;;;13.33;40.69;102327.19;5058659;28;2065;-72
2021/03/17 08:28:59;;;;;;;;;;;;;;;19.01;32.04;102322.53;5031065;28;1498;-71
2021/03/17 08:31:51;;;;;;;;;;;;;;;22.51;27.64;102316.06;5038694;28;1975;-71
2021/03/17 08:34:19;;;;;;;;;;;;;;;17.28;33.36;102316.09;5034815;28;1264;-72
2021/03/17 08:36:46;;;;;;;;;;;;;;;13.48;41.94;102330.66;5039993;28;2094;-71
2021/03/17 08:39:11;;;;;;;;;;;;;;;11.14;47.89;102338.34;5057960;28;1998;-71
2021/03/17 08:41:37;;;;;;;;;;;;;;;9.63;51.93;102334.38;5058543;28;848;-71
2021/03/17 08:44:19;;;;;;;;;;;;;;;8.19;56.08;102341.75;5058161;28;824;-71
2021/03/17 08:46:47;;;;;;;;;;;;;;;7.36;59.65;102349.88;5058102;28;1961;-71
2021/03/17 08:49:35;;;;;;;;;;;;;;;6.81;61.62;102347.16;5038199;28;1258;-71
2021/03/17 08:52:03;;;;;;;;;;;;;;;6.20;64.38;102348.19;5038194;28;1971;-71
2021/03/17 08:54:35;;;;;;;;;;;;;;;5.84;65.57;102340.78;5037819;28;869;-70
2021/03/17 08:57:08;;;;;;;;;;;;;;;5.55;67.30;102351.47;5039714;28;2089;-71
2021/03/17 08:59:51;;;;;;;;;;;;;;;5.37;68.55;102349.25;5057148;28;1384;-70
2021/03/17 09:02:25;;;;;;;;;;;;;;;5.02;69.67;102354.38;5056526;28;2149;-71
2021/03/17 09:04:55;;;;;;;;;;;;;;;4.97;69.50;102362.59;5057760;28;857;-70
2021/03/17 09:07:23;;;;;;;;;;;;;;;5.03;69.06;102363.41;5057967;28;908;-71
2021/03/17 09:09:51;;;;;;;;;;;;;;;5.26;68.33;102362.94;5039872;28;1349;-70
2021/03/17 09:12:18;;;;;;;;;;;;;;;5.46;67.78;102359.41;5057419;28;2054;-71
2021/03/17 09:14:44;;;;;;;;;;;;;;;5.64;67.26;102369.03;5037155;28;909;-71
2021/03/17 09:17:25;;;;;;;;;;;;;;;5.56;64.34;102361.34;5039990;28;1952;-71
2021/03/17 09:20:01;;;;;;;;;;;;;;;5.71;63.41;102366.00;5057259;28;1271;-71
2021/03/17 09:22:32;;;;;;;;;;;;;;;5.96;60.82;102367.94;5057339;28;917;-71
2021/03/17 09:24:57;;;;;;;;;;;;;;;6.48;59.82;102368.69;5037448;28;2043;-71
2021/03/17 09:27:23;;;;;;;;;;;;;;;6.89;57.30;102374.03;5056561;28;1047;-70
2021/03/17 09:29:49;;;;;;;;;;;;;;;6.96;56.32;102371.00;5056775;28;1272;-71
2021/03/17 09:32:14;;;;;;;;;;;;;;;6.90;55.78;102372.94;5056700;28;2136;-70
2021/03/17 09:34:39;;;;;;;;;;;;;;;7.42;55.69;102372.66;5057089;28;899;-71
2021/03/17 09:37:10;;;;;;;;;;;;;;;8.29;53.70;102363.69;5056450;28;794;-71
2021/03/17 09:39:37;;;;;;;;;;;;;;;8.84;51.54;102374.34;5056155;28;2130;-71
2021/03/17 09:42:03;;;;;;;;;;;;;;;8.77;50.68;102371.97;5056446;28;2082;-71
2021/03/17 09:44:29;;;;;;;;;;;;;;;8.73;49.52;102367.34;5039137;28;1059;-71
2021/03/17 09:46:55;;;;;;;;;;;;;;;10.85;45.66;102358.09;5056381;28;2046;-71
2021/03/17 09:49:24;;;;;;;;;;;;;;;15.06;37.11;102351.16;5056233;28;1368;-71
2021/03/17 09:51:53;;;;;;;;;;;;;;;14.01;36.88;102364.66;5056985;28;1894;-71
2021/03/17 09:54:27;;;;;;;;;;;;;;;12.72;37.66;102363.13;5056311;28;2038;-71
2021/03/17 09:56:58;;;;;;;;;;;;;;;11.43;43.22;102373.09;5056233;28;903;-71
2021/03/17 09:59:29;;;;;;;;;;;;;;;10.24;45.50;102369.16;5056783;28;1334;-71
2021/03/17 10:02:01;;;;;;;;;;;;;;;9.89;45.95;102373.38;5055907;28;2046;-72
2021/03/17 10:04:31;;;;;;;;;;;;;;;9.83;46.07;102377.34;5056552;28;873;-71
2021/03/17 10:06:58;;;;;;;;;;;;;;;9.77;45.63;102377.44;5056517;28;861;-71
2021/03/17 10:09:28;;;;;;;;;;;;;;;10.26;45.29;102379.91;5056567;28;1380;-71
2021/03/17 10:12:01;;;;;;;;;;;;;;;10.33;46.44;102372.91;5055670;28;2107;-71
2021/03/17 10:14:26;;;;;;;;;;;;;;;10.31;46.16;102377.06;5056258;28;2021;-71
2021/03/17 10:16:54;;;;;;;;;;;;;;;10.11;46.64;102370.78;5055563;28;2081;-71
2021/03/17 10:19:19;;;;;;;;;;;;;;;13.13;41.08;102370.25;5055966;28;1278;-71
2021/03/17 10:21:45;;;;;;;;;;;;;;;15.35;36.93;102371.72;5055900;28;841;-71
2021/03/17 10:24:11;;;;;;;;;;;;;;;14.22;37.30;102371.16;5056420;28;861;-71
2021/03/17 10:26:37;;;;;;;;;;;;;;;12.91;41.31;102376.72;5056767;28;1161;-71
2021/03/17 10:29:05;;;;;;;;;;;;;;;12.67;42.74;102368.81;5055551;28;2037;-71
2021/03/17 10:31:35;;;;;;;;;;;;;;;15.33;37.59;102374.84;5056155;28;1894;-71
2021/03/17 10:34:00;;;;;;;;;;;;;;;18.91;31.32;102358.31;5055332;28;2117;-71
2021/03/17 10:36:35;;;;;;;;;;;;;;;18.72;29.29;102356.25;5055348;28;849;-71
2021/03/17 10:39:01;;;;;;;;;;;;;;;17.74;30.22;102366.06;5055567;28;1345;-71
2021/03/17 10:41:44;;;;;;;;;;;;;;;15.74;32.55;102370.38;5055807;28;976;-71
2021/03/17 10:44:25;;;;;;;;;;;;;;;14.19;36.43;102371.81;5055523;28;802;-72
2021/03/17 10:47:03;;;;;;;;;;;;;;;13.38;37.73;102367.03;5054918;28;2223;-71
2021/03/17 10:49:31;;;;;;;;;;;;;;;15.41;36.63;102365.59;5055034;28;1923;-71
2021/03/17 10:51:57;;;;;;;;;;;;;;;15.55;34.59;102362.53;5055200;28;1963;-71
2021/03/17 10:54:30;;;;;;;;;;;;;;;14.65;36.64;102366.59;5055664;28;886;-71
2021/03/17 10:56:56;;;;;;;;;;;;;;;17.79;31.10;102371.41;5055209;28;1376;-71
2021/03/17 10:59:26;;;;;;;;;;;;;;;21.99;25.00;102352.59;5055752;28;1353;-71
2021/03/17 11:02:23;;;;;;;;;;;;;;;22.46;23.08;102353.03;5055022;28;1897;-69
2021/03/17 11:05:21;;;;;;;;;;;;;;;25.97;21.33;102343.25;5055850;28;853;-69
2021/03/17 11:07:50;;;;;;;;;;;;;;;22.92;21.43;102361.78;5055094;28;808;-69
2021/03/17 11:10:34;;;;;;;;;;;;;;;18.19;28.50;102372.50;5055168;28;1369;-69
2021/03/17 11:13:01;;;;;;;;;;;;;;;16.36;31.29;102370.56;5053718;28;2114;-71
2021/03/17 11:15:31;;;;;;;;;;;;;;;18.18;28.03;102370.84;5054837;28;1175;-71
2021/03/17 11:17:59;;;;;;;;;;;;;;;19.02;26.08;102368.94;5054583;28;2247;-72
2021/03/17 11:20:25;;;;;;;;;;;;;;;20.43;24.80;102362.09;5054981;28;919;-72
2021/03/17 11:22:51;;;;;;;;;;;;;;;21.81;23.92;102362.84;5058725;28;908;-69
2021/03/17 11:25:26;;;;;;;;;;;;;;;23.88;21.93;102353.38;5054209;28;2042;-71
2021/03/17 11:27:53;;;;;;;;;;;;;;;23.24;22.90;102364.03;5054741;28;2064;-69
2021/03/17 11:30:20;;;;;;;;;;;;;;;19.76;27.13;102368.09;5054429;28;2113;-69
2021/03/17 11:32:46;;;;;;;;;;;;;;;21.59;25.45;102369.06;5054588;28;2105;-70
2021/03/17 11:35:13;;;;;;;;;;;;;;;23.58;23.36;102357.31;5054669;28;1059;-69
2021/03/17 11:37:39;;;;;;;;;;;;;;;25.00;20.58;102360.63;5054965;28;1052;-69
2021/03/17 11:40:06;;;;;;;;;;;;;;;26.04;18.80;102348.03;5054205;28;2157;-69
2021/03/17 11:42:32;;;;;;;;;;;;;;;24.93;20.19;102350.16;5054711;28;908;-69
2021/03/17 11:44:57;;;;;;;;;;;;;;;26.82;18.79;102354.25;5054122;28;908;-69
2021/03/17 11:47:23;;;;;;;;;;;;;;;26.19;18.42;102355.19;5053142;28;2108;-69
2021/03/17 11:49:48;;;;;;;;;;;;;;;27.47;18.40;102362.03;5054684;28;1262;-69
2021/03/17 11:52:13;;;;;;;;;;;;;;;27.11;18.46;102356.78;5054775;28;1958;-69
2021/03/17 11:54:39;;;;;;;;;;;;;;;22.02;23.19;102370.69;5054979;28;916;-69
2021/03/17 11:57:05;;;;;;;;;;;;;;;16.94;30.70;102390.03;5053394;28;2070;-73
2021/03/17 11:59:31;;;;;;;;;;;;;;;15.00;34.51;102396.97;5054249;28;2159;-72
2021/03/17 12:01:56;;;;;;;;;;;;;;;13.50;38.81;102408.81;5054298;28;2093;-72
2021/03/17 12:04:21;;;;;;;;;;;;;;;13.22;40.02;102406.31;5054711;28;806;-72
2021/03/17 12:06:47;;;;;;;;;;;;;;;13.03;38.73;102397.44;5054778;28;940;-71
2021/03/17 12:09:12;;;;;;;;;;;;;;;15.96;34.92;102399.84;5054808;28;1274;-71
2021/03/17 12:11:40;;;;;;;;;;;;;;;18.76;31.02;102384.31;5054701;28;2074;-71
2021/03/17 12:14:06;;;;;;;;;;;;;;;19.82;27.96;102389.06;5054410;28;1007;-71
2021/03/17 12:16:32;;;;;;;;;;;;;;;17.53;30.17;102390.56;5054087;28;1035;-71
2021/03/17 12:18:57;;;;;;;;;;;;;;;15.92;33.16;102393.34;5053685;28;2101;-71
2021/03/17 12:21:22;;;;;;;;;;;;;;;13.85;38.02;102392.16;5053958;28;1074;-72
2021/03/17 12:23:48;;;;;;;;;;;;;;;12.41;39.91;102394.47;5054213;28;2177;-71
2021/03/17 12:26:14;;;;;;;;;;;;;;;11.40;42.79;102402.22;5053748;28;2024;-72
2021/03/17 12:28:40;;;;;;;;;;;;;;;11.58;44.26;102399.59;5053856;28;1266;-71
2021/03/17 12:31:06;;;;;;;;;;;;;;;12.93;41.01;102393.03;5053934;28;1894;-71
2021/03/17 12:33:32;;;;;;;;;;;;;;;13.47;40.04;102401.13;5053767;28;2103;-71
2021/03/17 12:35:58;;;;;;;;;;;;;;;14.23;38.54;102391.41;5054519;28;897;-71
2021/03/17 12:38:24;;;;;;;;;;;;;;;17.94;30.66;102391.38;5053102;28;2248;-71
2021/03/17 12:40:49;;;;;;;;;;;;;;;19.99;26.75;102391.38;5053849;28;988;-71
2021/03/17 12:43:14;;;;;;;;;;;;;;;17.26;31.45;102402.16;5053573;28;968;-71
2021/03/17 12:45:40;;;;;;;;;;;;;;;15.39;34.33;102406.06;5054012;28;1109;-71
2021/03/17 12:48:06;;;;;;;;;;;;;;;13.66;38.21;102406.38;5053632;28;2160;-71
2021/03/17 12:50:31;;;;;;;;;;;;;;;13.07;38.69;102406.78;5054484;28;1008;-74
2021/03/17 12:52:56;;;;;;;;;;;;;;;12.67;39.14;102401.28;5053015;28;1969;-71
2021/03/17 12:55:22;;;;;;;;;;;;;;;13.09;38.98;102396.97;5052601;28;857;-71
2021/03/17 12:57:47;;;;;;;;;;;;;;;15.03;36.26;102401.88;5054870;28;920;-71
2021/03/17 13:00:16;;;;;;;;;;;;;;;18.38;30.67;102386.56;5057621;28;1323;-71
2021/03/17 13:02:42;;;;;;;;;;;;;;;21.21;26.60;102392.59;5056554;28;2083;-71
2021/03/17 13:05:10;;;;;;;;;;;;;;;23.43;23.48;102390.28;5057738;28;873;-71